createdAt,value
2022-10-09T00:02:23.183Z,101592.78
2022-10-09T00:04:49.386Z,101589.53
2022-10-09T00:07:15.534Z,101591.34
2022-10-09T00:09:41.699Z,101592.34
2022-10-09T00:12:07.822Z,101583.81
2022-10-09T00:14:33.964Z,101583.03
2022-10-09T00:17:00.169Z,101589.22
2022-10-09T00:19:26.329Z,101584.97
2022-10-09T00:21:52.452Z,101581.59
2022-10-09T00:24:18.583Z,101583.34
2022-10-09T00:26:51.850Z,101579.09
2022-10-09T00:29:17.995Z,101581.53
2022-10-09T00:31:44.120Z,101580.78
2022-10-09T00:34:10.255Z,101580.84
2022-10-09T00:36:36.378Z,101580.00
2022-10-09T00:39:02.529Z,101575.72
2022-10-09T00:41:28.677Z,101584.34
2022-10-09T00:43:54.810Z,101576.50
2022-10-09T00:46:21.065Z,101576.66
2022-10-09T00:48:47.233Z,101576.66
2022-10-09T00:51:13.356Z,101573.22
2022-10-09T00:53:39.504Z,101573.22
2022-10-09T00:56:05.665Z,101572.41
2022-10-09T00:58:31.799Z,101568.94
2022-10-09T01:00:57.968Z,101564.72
2022-10-09T01:03:24.117Z,101570.75
2022-10-09T01:05:50.275Z,101576.81
2022-10-09T01:08:16.416Z,101565.56
2022-10-09T01:10:42.557Z,101562.09
2022-10-09T01:13:08.669Z,101563.06
2022-10-09T01:15:34.838Z,101563.91
2022-10-09T01:18:01.004Z,101558.75
2022-10-09T01:20:27.130Z,101551.81
2022-10-09T01:22:53.268Z,101560.56
2022-10-09T01:25:19.419Z,101555.47
2022-10-09T01:27:45.552Z,101553.75
2022-10-09T01:30:11.671Z,101559.84
2022-10-09T01:32:37.796Z,101548.59
2022-10-09T01:35:03.953Z,101548.59
2022-10-09T01:37:30.098Z,101561.69
2022-10-09T01:39:56.218Z,101555.59
2022-10-09T01:42:22.359Z,101552.16
2022-10-09T01:44:48.476Z,101548.78
2022-10-09T01:47:14.604Z,101552.28
2022-10-09T01:49:40.733Z,101545.34
2022-10-09T01:52:06.853Z,101542.75
2022-10-09T01:54:33.008Z,101538.47
2022-10-09T01:56:59.111Z,101539.31
2022-10-09T01:59:25.245Z,101532.38
2022-10-09T02:01:51.454Z,101531.41
2022-10-09T02:04:17.713Z,101528.81
2022-10-09T02:06:43.831Z,101518.44
2022-10-09T02:09:10.742Z,101523.63
2022-10-09T02:11:36.893Z,101516.75
2022-10-09T02:14:03.019Z,101515.94
2022-10-09T02:16:36.798Z,101516.75
2022-10-09T02:19:03.394Z,101518.41
2022-10-09T02:21:29.521Z,101514.09
2022-10-09T02:23:55.671Z,101520.19
2022-10-09T02:26:23.612Z,101519.44
2022-10-09T02:28:49.808Z,101512.50
2022-10-09T02:31:16.034Z,101516.13
2022-10-09T02:36:28.030Z,101516.94
2022-10-09T02:39:02.054Z,101512.81
2022-10-09T02:41:34.056Z,101515.44
2022-10-09T02:44:04.034Z,101514.56
2022-10-09T02:46:30.577Z,101516.31
2022-10-09T02:49:14.747Z,101516.28
2022-10-09T02:54:28.386Z,101511.13
2022-10-09T02:59:39.522Z,101502.59
2022-10-09T03:02:06.131Z,101505.19
2022-10-09T03:07:19.016Z,101503.47
2022-10-09T03:09:47.539Z,101501.69
2022-10-09T03:15:02.619Z,101506.88
2022-10-09T03:17:28.734Z,101507.78
2022-10-09T03:19:54.835Z,101504.22
2022-10-09T03:22:20.961Z,101499.00
2022-10-09T03:24:47.098Z,101500.69
2022-10-09T03:27:13.246Z,101505.03
2022-10-09T03:29:39.404Z,101498.13
2022-10-09T03:32:05.581Z,101508.44
2022-10-09T03:34:31.728Z,101504.09
2022-10-09T03:36:57.896Z,101499.75
2022-10-09T03:39:24.039Z,101497.16
2022-10-09T03:41:50.146Z,101498.91
2022-10-09T03:44:16.281Z,101505.78
2022-10-09T03:46:42.466Z,101500.59
2022-10-09T03:49:08.643Z,101504.03
2022-10-09T03:51:34.773Z,101509.19
2022-10-09T03:54:00.909Z,101510.22
2022-10-09T03:56:27.019Z,101516.50
2022-10-09T03:58:53.179Z,101513.13
2022-10-09T04:01:19.364Z,101514.97
2022-10-09T04:03:45.534Z,101523.56
2022-10-09T04:06:11.675Z,101516.66
2022-10-09T04:08:37.798Z,101520.19
2022-10-09T04:11:03.979Z,101522.78
2022-10-09T04:13:30.087Z,101515.09
2022-10-09T04:15:56.341Z,101521.13
2022-10-09T04:18:22.568Z,101515.06
2022-10-09T04:20:48.701Z,101507.34
2022-10-09T04:23:14.885Z,101508.19
2022-10-09T04:25:41.012Z,101506.41
2022-10-09T04:28:07.194Z,101503.00
2022-10-09T04:30:33.400Z,101509.03
2022-10-09T04:32:59.506Z,101503.81
2022-10-09T04:35:25.638Z,101507.31
2022-10-09T04:37:51.775Z,101510.81
2022-10-09T04:40:17.906Z,101510.84
2022-10-09T04:42:44.043Z,101516.91
2022-10-09T04:45:10.226Z,101512.66
2022-10-09T04:47:36.365Z,101517.00
2022-10-09T04:50:02.464Z,101522.28
2022-10-09T04:52:28.601Z,101518.88
2022-10-09T04:54:54.733Z,101517.09
2022-10-09T04:57:20.853Z,101506.78
2022-10-09T04:59:47.001Z,101506.78
2022-10-09T05:02:13.158Z,101511.97
2022-10-09T05:04:39.349Z,101510.28
2022-10-09T05:07:05.470Z,101505.09
2022-10-09T05:09:31.620Z,101511.09
2022-10-09T05:11:57.787Z,101505.13
2022-10-09T05:14:23.925Z,101504.28
2022-10-09T05:17:12.388Z,101498.25
2022-10-09T05:19:37.714Z,101507.72
2022-10-09T05:22:03.867Z,101505.13
2022-10-09T05:24:30.029Z,101496.56
2022-10-09T05:26:56.167Z,101508.63
2022-10-09T05:29:22.286Z,101505.22
2022-10-09T05:31:49.692Z,101508.66
2022-10-09T05:34:15.998Z,101501.75
2022-10-09T05:36:42.123Z,101509.53
2022-10-09T05:39:08.262Z,101513.84
2022-10-09T05:41:34.422Z,101512.13
2022-10-09T05:44:00.549Z,101512.13
2022-10-09T05:46:26.704Z,101512.16
2022-10-09T05:48:52.854Z,101513.88
2022-10-09T05:51:18.997Z,101509.56
2022-10-09T05:53:48.583Z,101513.00
2022-10-09T05:56:14.727Z,101512.13
2022-10-09T05:58:40.825Z,101509.53
2022-10-09T06:01:07.027Z,101514.63
2022-10-09T06:03:33.207Z,101506.88
2022-10-09T06:05:59.343Z,101515.47
2022-10-09T06:08:25.475Z,101510.28
2022-10-09T06:10:51.622Z,101503.38
2022-10-09T06:13:20.937Z,101503.28
2022-10-09T06:15:47.122Z,101509.28
2022-10-09T06:18:13.254Z,101502.31
2022-10-09T06:20:39.393Z,101502.22
2022-10-09T06:23:05.498Z,101513.31
2022-10-09T06:25:31.648Z,101513.19
2022-10-09T06:27:57.746Z,101514.72
2022-10-09T06:30:24.866Z,101514.53
2022-10-09T06:32:51.810Z,101506.41
2022-10-09T06:35:18.197Z,101506.09
2022-10-09T06:37:44.320Z,101504.72
2022-10-09T06:40:10.498Z,101494.84
2022-10-09T06:42:36.653Z,101505.59
2022-10-09T06:45:02.759Z,101506.94
2022-10-09T06:47:28.887Z,101509.19
2022-10-09T06:49:55.010Z,101506.19
2022-10-09T06:55:09.851Z,101512.38
2022-10-09T06:57:35.972Z,101514.97
2022-10-09T07:00:02.141Z,101509.03
2022-10-09T07:02:28.346Z,101510.00
2022-10-09T07:04:54.901Z,101511.84
2022-10-09T07:07:24.047Z,101511.78
2022-10-09T07:09:51.711Z,101507.28
2022-10-09T07:12:17.841Z,101509.72
2022-10-09T07:14:43.995Z,101511.25
2022-10-09T07:17:10.171Z,101510.03
2022-10-09T07:19:36.463Z,101504.34
2022-10-09T07:22:02.640Z,101512.22
2022-10-09T07:24:28.780Z,101511.50
2022-10-09T07:26:54.897Z,101513.13
2022-10-09T07:29:21.055Z,101504.28
2022-10-09T07:31:47.174Z,101502.25
2022-10-09T07:34:13.319Z,101495.59
2022-10-09T07:36:39.510Z,101495.88
2022-10-09T07:39:05.682Z,101496.81
2022-10-09T07:41:37.946Z,101505.69
2022-10-09T07:44:05.265Z,101486.75
2022-10-09T07:46:34.005Z,101491.13
2022-10-09T07:49:00.521Z,101481.09
2022-10-09T07:51:41.909Z,101489.44
2022-10-09T07:54:08.149Z,101484.66
2022-10-09T07:56:34.284Z,101486.63
2022-10-09T07:59:00.422Z,101490.16
2022-10-09T08:01:26.574Z,101486.88
2022-10-09T08:03:52.745Z,101488.56
2022-10-09T08:06:18.894Z,101489.66
2022-10-09T08:08:47.848Z,101492.28
2022-10-09T08:11:14.015Z,101491.03
2022-10-09T08:13:40.181Z,101494.34
2022-10-09T08:16:06.349Z,101482.59
2022-10-09T08:18:32.536Z,101480.75
2022-10-09T08:20:58.687Z,101476.34
2022-10-09T08:23:24.823Z,101480.94
2022-10-09T08:25:50.961Z,101483.22
2022-10-09T08:28:17.215Z,101481.31
2022-10-09T08:30:43.430Z,101481.81
2022-10-09T08:33:09.615Z,101476.81
2022-10-09T08:35:35.946Z,101476.75
2022-10-09T08:38:08.256Z,101472.06
2022-10-09T08:40:34.936Z,101467.66
2022-10-09T08:43:03.214Z,101461.09
2022-10-09T08:45:30.918Z,101464.13
2022-10-09T08:47:59.384Z,101462.25
2022-10-09T08:50:27.819Z,101459.56
2022-10-09T08:52:57.953Z,101446.25
2022-10-09T08:55:33.159Z,101447.25
2022-10-09T08:58:00.927Z,101449.06
2022-10-09T09:00:30.020Z,101443.59
2022-10-09T09:02:56.176Z,101447.06
2022-10-09T09:05:22.331Z,101450.97
2022-10-09T09:07:51.220Z,101445.31
2022-10-09T09:10:18.843Z,101436.38
2022-10-09T09:12:45.115Z,101442.16
2022-10-09T09:15:11.265Z,101438.72
2022-10-09T09:20:17.518Z,101429.88
2022-10-09T09:22:43.765Z,101424.41
2022-10-09T09:25:09.962Z,101411.00
2022-10-09T09:27:36.098Z,101420.47
2022-10-09T09:30:02.208Z,101406.78
2022-10-09T09:32:28.373Z,101414.03
2022-10-09T09:34:54.532Z,101415.50
2022-10-09T09:37:20.734Z,101406.28
2022-10-09T09:42:33.078Z,101406.09
2022-10-09T09:44:59.197Z,101409.16
2022-10-09T09:47:25.330Z,101407.66
2022-10-09T09:49:51.495Z,101404.78
2022-10-09T09:52:17.601Z,101394.75
2022-10-09T09:54:43.712Z,101394.47
2022-10-09T09:57:17.079Z,101387.38
2022-10-09T09:59:45.684Z,101385.94
2022-10-09T10:02:11.901Z,101385.38
2022-10-09T10:04:43.083Z,101383.91
2022-10-09T10:07:09.398Z,101375.59
2022-10-09T10:09:35.591Z,101371.63
2022-10-09T10:12:01.751Z,101368.78
2022-10-09T10:14:27.870Z,101362.53
2022-10-09T10:16:53.994Z,101356.28
2022-10-09T10:19:20.132Z,101355.84
2022-10-09T10:21:46.268Z,101358.03
2022-10-09T10:24:12.420Z,101349.91
2022-10-09T10:26:38.564Z,101345.22
2022-10-09T10:29:05.933Z,101347.19
2022-10-09T10:31:32.080Z,101336.41
2022-10-09T10:33:58.232Z,101328.75
2022-10-09T10:36:24.358Z,101325.16
2022-10-09T10:38:50.509Z,101313.47
2022-10-09T10:41:16.677Z,101318.31
2022-10-09T10:43:42.819Z,101317.94
2022-10-09T10:46:08.938Z,101316.28
2022-10-09T10:48:35.078Z,101300.34
2022-10-09T10:51:02.024Z,101303.03
2022-10-09T10:53:28.176Z,101297.69
2022-10-09T10:55:54.468Z,101296.56
2022-10-09T11:00:51.713Z,101288.06
2022-10-09T11:03:17.917Z,101291.59
2022-10-09T11:05:44.134Z,101283.66
2022-10-09T11:08:10.394Z,101280.50
2022-10-09T11:10:36.555Z,101277.75
2022-10-09T11:13:02.976Z,101286.22
2022-10-09T11:15:29.275Z,101272.00
2022-10-09T11:17:55.423Z,101271.59
2022-10-09T11:20:21.540Z,101265.97
2022-10-09T11:22:47.878Z,101257.94
2022-10-09T11:25:18.096Z,101262.22
2022-10-09T11:27:44.232Z,101249.66
2022-10-09T11:30:12.054Z,101248.84
2022-10-09T11:32:38.323Z,101248.56
2022-10-09T11:35:04.645Z,101242.66
2022-10-09T11:37:30.775Z,101233.91
2022-10-09T11:39:56.897Z,101227.16
2022-10-09T11:42:23.032Z,101226.72
2022-10-09T11:44:49.140Z,101231.06
2022-10-09T11:47:15.250Z,101223.44
2022-10-09T11:49:41.432Z,101221.72
2022-10-09T11:52:07.556Z,101219.50
2022-10-09T11:54:33.692Z,101212.13
2022-10-09T11:56:59.856Z,101206.09
2022-10-09T11:59:26.070Z,101199.34
2022-10-09T12:01:52.259Z,101201.94
2022-10-09T12:04:23.850Z,101197.28
2022-10-09T12:06:58.379Z,101192.38
2022-10-09T12:09:24.523Z,101184.41
2022-10-09T12:11:50.683Z,101184.94
2022-10-09T12:14:20.169Z,101182.72
2022-10-09T12:16:46.657Z,101170.25
2022-10-09T12:19:12.835Z,101166.03
2022-10-09T12:21:38.977Z,101164.84
2022-10-09T12:24:05.138Z,101156.19
2022-10-09T12:26:31.255Z,101162.34
2022-10-09T12:28:57.624Z,101150.72
2022-10-09T12:31:23.808Z,101146.66
2022-10-09T12:33:49.989Z,101134.41
2022-10-09T12:36:16.132Z,101134.63
2022-10-09T12:38:42.252Z,101127.56
2022-10-09T12:41:08.409Z,101116.34
2022-10-09T12:43:34.545Z,101118.78
2022-10-09T12:46:00.723Z,101119.72
2022-10-09T12:48:26.922Z,101110.53
2022-10-09T12:50:53.068Z,101104.59
2022-10-09T12:53:19.214Z,101095.22
2022-10-09T12:55:45.328Z,101102.47
2022-10-09T12:58:11.586Z,101100.69
2022-10-09T13:00:37.828Z,101091.78
2022-10-09T13:03:04.216Z,101067.06
2022-10-09T13:05:30.609Z,101090.22
2022-10-09T13:07:56.837Z,101077.13
2022-10-09T13:10:22.983Z,101070.56
2022-10-09T13:12:49.444Z,101075.03
2022-10-09T13:15:18.911Z,101065.28
2022-10-09T13:17:45.271Z,101064.03
2022-10-09T13:20:11.540Z,101063.38
2022-10-09T13:22:37.669Z,101060.53
2022-10-09T13:25:03.813Z,101062.22
2022-10-09T13:27:29.932Z,101051.53
2022-10-09T13:29:56.081Z,101058.00
2022-10-09T13:32:22.245Z,101043.72
2022-10-09T13:34:48.349Z,101053.56
2022-10-09T13:37:14.474Z,101045.06
2022-10-09T13:39:40.626Z,101033.34
2022-10-09T13:42:06.829Z,101031.50
2022-10-09T13:44:32.970Z,101035.22
2022-10-09T13:46:59.209Z,101023.47
2022-10-09T13:49:25.322Z,101019.78
2022-10-09T13:51:51.461Z,101019.16
2022-10-09T13:54:17.593Z,101011.88
2022-10-09T13:56:43.798Z,101009.09
2022-10-09T13:59:09.919Z,101008.28
2022-10-09T14:01:36.095Z,101011.00
2022-10-09T14:04:02.246Z,101000.06
2022-10-09T14:06:28.375Z,100998.41
2022-10-09T14:08:54.500Z,100999.91
2022-10-09T14:11:20.667Z,100998.44
2022-10-09T14:13:46.790Z,100995.25
2022-10-09T14:16:12.921Z,100987.44
2022-10-09T14:18:39.063Z,100983.63
2022-10-09T14:21:05.205Z,100980.50
2022-10-09T14:23:31.351Z,100981.47
2022-10-09T14:25:57.714Z,100972.06
2022-10-09T14:28:23.935Z,100978.41
2022-10-09T14:30:50.101Z,100973.03
2022-10-09T14:33:16.256Z,100967.00
2022-10-09T14:35:42.379Z,100963.06
2022-10-09T14:38:08.516Z,100953.44
2022-10-09T14:40:34.633Z,100957.56
2022-10-09T14:43:00.774Z,100953.97
2022-10-09T14:45:26.904Z,100948.44
2022-10-09T14:47:53.089Z,100949.78
2022-10-09T14:52:59.360Z,100939.34
2022-10-09T14:55:25.549Z,100945.34
2022-10-09T14:57:52.856Z,100930.78
2022-10-09T15:00:19.135Z,100927.16
2022-10-09T15:02:45.316Z,100930.31
2022-10-09T15:05:11.460Z,100922.88
2022-10-09T15:07:37.592Z,100923.38
2022-10-09T15:10:03.740Z,100906.50
2022-10-09T15:20:55.225Z,100907.59
2022-10-09T15:23:34.288Z,100905.41
2022-10-09T15:26:06.242Z,100901.66
2022-10-09T15:28:32.445Z,100895.38
2022-10-09T15:30:58.660Z,100894.22
2022-10-09T15:33:24.823Z,100898.91
2022-10-09T15:38:35.231Z,100890.00
2022-10-09T15:41:06.613Z,100891.38
2022-10-09T15:49:09.331Z,100882.88
2022-10-09T15:51:37.797Z,100882.81
2022-10-09T15:54:06.750Z,100873.44
2022-10-09T15:56:39.488Z,100872.50
2022-10-09T15:59:07.262Z,100872.91
2022-10-09T16:01:38.950Z,100868.22
2022-10-09T16:04:12.427Z,100866.00
2022-10-09T16:06:38.599Z,100864.53
2022-10-09T16:09:04.731Z,100867.16
2022-10-09T16:11:33.238Z,100863.34
2022-10-09T16:14:23.798Z,100862.28
2022-10-09T16:16:49.264Z,100860.06
2022-10-09T16:21:59.410Z,100862.88
2022-10-09T16:24:27.898Z,100863.28
2022-10-09T16:26:54.149Z,100860.41
2022-10-09T16:29:20.310Z,100860.59
2022-10-09T16:32:09.450Z,100854.69
2022-10-09T16:40:17.237Z,100861.88
2022-10-09T16:42:43.385Z,100856.31
2022-10-09T16:45:20.370Z,100860.66
2022-10-09T16:47:49.582Z,100859.19
2022-10-09T16:50:21.391Z,100860.22
2022-10-09T16:52:50.595Z,100859.75
2022-10-09T16:55:22.653Z,100869.06
2022-10-09T16:57:54.057Z,100871.16
2022-10-09T17:05:51.668Z,100873.94
2022-10-09T17:08:50.146Z,100873.56
2022-10-09T17:11:09.566Z,100865.72
2022-10-09T17:13:35.716Z,100873.47
2022-10-09T17:16:01.846Z,100875.72
2022-10-09T17:18:28.059Z,100879.81
2022-10-09T17:21:27.780Z,100869.81
2022-10-09T17:23:41.234Z,100868.91
2022-10-09T17:26:07.389Z,100869.53
2022-10-09T17:28:33.547Z,100872.69
2022-10-09T17:30:59.727Z,100881.22
2022-10-09T17:33:25.879Z,100879.88
2022-10-09T17:35:52.092Z,100874.28
2022-10-09T17:38:18.231Z,100873.94
2022-10-09T17:40:44.387Z,100875.53
2022-10-09T17:43:11.836Z,100885.81
2022-10-09T17:45:39.269Z,100885.97
2022-10-09T17:48:05.569Z,100881.16
2022-10-09T17:50:35.559Z,100886.31
2022-10-09T17:53:01.797Z,100883.78
2022-10-09T17:55:28.000Z,100885.53
2022-10-09T17:57:54.162Z,100884.53
2022-10-09T18:00:21.914Z,100880.03
2022-10-09T18:02:48.233Z,100878.03
2022-10-09T18:05:14.394Z,100873.38
2022-10-09T18:07:40.636Z,100874.16
2022-10-09T18:10:06.801Z,100875.16
2022-10-09T18:12:32.928Z,100877.84
2022-10-09T18:14:59.060Z,100875.56
2022-10-09T18:17:25.223Z,100861.97
2022-10-09T18:19:51.401Z,100870.75
2022-10-09T18:22:17.572Z,100860.00
2022-10-09T18:24:43.746Z,100858.59
2022-10-09T18:27:09.868Z,100860.34
2022-10-09T18:29:36.013Z,100866.63
2022-10-09T18:32:02.179Z,100859.59
2022-10-09T18:34:28.300Z,100864.41
2022-10-09T18:36:54.433Z,100861.34
2022-10-09T18:39:20.580Z,100860.31
2022-10-09T18:41:46.770Z,100855.22
2022-10-09T18:44:12.945Z,100860.25
2022-10-09T18:46:39.068Z,100856.06
2022-10-09T18:49:05.235Z,100848.22
2022-10-09T18:51:31.360Z,100847.22
2022-10-09T18:53:57.477Z,100851.44
2022-10-09T18:56:23.615Z,100849.16
2022-10-09T18:58:49.749Z,100841.53
2022-10-09T19:01:15.877Z,100843.47
2022-10-09T19:03:44.819Z,100841.47
2022-10-09T19:06:13.725Z,100840.75
2022-10-09T19:08:39.891Z,100844.31
2022-10-09T19:11:06.020Z,100839.00
2022-10-09T19:13:32.193Z,100838.06
2022-10-09T19:15:58.326Z,100841.91
2022-10-09T19:18:24.487Z,100838.38
2022-10-09T19:20:50.666Z,100838.16
2022-10-09T19:23:16.829Z,100833.06
2022-10-09T19:25:42.955Z,100832.38
2022-10-09T19:28:09.109Z,100833.97
2022-10-09T19:30:35.272Z,100833.94
2022-10-09T19:33:01.422Z,100831.22
2022-10-09T19:35:27.548Z,100827.84
2022-10-09T19:37:53.696Z,100824.59
2022-10-09T19:40:19.820Z,100825.47
2022-10-09T19:42:45.967Z,100824.53
2022-10-09T19:45:12.100Z,100821.66
2022-10-09T19:47:38.245Z,100818.41
2022-10-09T19:50:04.374Z,100822.16
2022-10-09T19:52:30.515Z,100823.91
2022-10-09T19:54:56.696Z,100823.06
2022-10-09T19:57:22.816Z,100813.88
2022-10-09T19:59:48.988Z,100810.34
2022-10-09T20:02:15.142Z,100811.16
2022-10-09T20:04:41.267Z,100809.66
2022-10-09T20:07:12.340Z,100814.81
2022-10-09T20:09:38.930Z,100813.09
2022-10-09T20:12:05.058Z,100813.09
2022-10-09T20:14:31.191Z,100814.03
2022-10-09T20:16:57.365Z,100812.97
2022-10-09T20:19:23.482Z,100811.25
2022-10-09T20:21:49.605Z,100812.28
2022-10-09T20:24:15.773Z,100811.50
2022-10-09T20:26:43.277Z,100806.63
2022-10-09T20:29:09.573Z,100803.41
2022-10-09T20:31:35.722Z,100801.56
2022-10-09T20:34:01.984Z,100798.06
2022-10-09T20:36:28.145Z,100798.31
2022-10-09T20:38:54.257Z,100796.69
2022-10-09T20:41:20.419Z,100804.63
2022-10-09T20:43:46.569Z,100800.72
2022-10-09T20:46:12.715Z,100790.47
2022-10-09T20:48:38.832Z,100796.22
2022-10-09T20:51:04.987Z,100787.41
2022-10-09T20:53:31.104Z,100788.19
2022-10-09T20:55:57.209Z,100795.34
2022-10-09T20:58:23.350Z,100785.75
2022-10-09T21:00:49.483Z,100787.25
2022-10-09T21:03:15.630Z,100781.13
2022-10-09T21:05:41.757Z,100791.59
2022-10-09T21:08:07.896Z,100784.56
2022-10-09T21:10:34.061Z,100795.97
2022-10-09T21:13:00.184Z,100790.13
2022-10-09T21:15:26.326Z,100785.75
2022-10-09T21:17:52.454Z,100792.94
2022-10-09T21:20:18.657Z,100785.19
2022-10-09T21:22:44.807Z,100793.84
2022-10-09T21:25:10.924Z,100791.19
2022-10-09T21:27:37.030Z,100786.81
2022-10-09T21:30:03.176Z,100789.56
2022-10-09T21:32:29.303Z,100792.94
2022-10-09T21:34:55.466Z,100787.84
2022-10-09T21:37:22.455Z,100786.00
2022-10-09T21:39:48.731Z,100784.59
2022-10-09T21:42:14.851Z,100785.53
2022-10-09T21:44:40.981Z,100781.16
2022-10-09T21:47:07.095Z,100782.94
2022-10-09T21:49:33.256Z,100778.84
2022-10-09T21:51:59.399Z,100786.03
2022-10-09T21:54:25.506Z,100782.56
2022-10-09T21:56:51.634Z,100776.00
2022-10-09T21:59:17.741Z,100776.94
2022-10-09T22:01:43.932Z,100776.31
2022-10-09T22:04:10.096Z,100771.38
2022-10-09T22:06:36.276Z,100768.75
2022-10-09T22:09:02.406Z,100776.00
2022-10-09T22:11:28.539Z,100770.91
2022-10-09T22:13:54.665Z,100772.75
2022-10-09T22:16:20.785Z,100773.53
2022-10-09T22:18:46.914Z,100769.50
2022-10-09T22:21:13.027Z,100769.66
2022-10-09T22:23:39.163Z,100766.28
2022-10-09T22:26:05.310Z,100770.81
2022-10-09T22:28:31.462Z,100771.50
2022-10-09T22:30:57.623Z,100764.75
2022-10-09T22:33:23.755Z,100768.44
2022-10-09T22:35:49.888Z,100768.56
2022-10-09T22:38:15.999Z,100762.19
2022-10-09T22:40:46.463Z,100763.53
2022-10-09T22:43:13.416Z,100763.69
2022-10-09T22:45:39.529Z,100774.56
2022-10-09T22:48:05.684Z,100762.56
2022-10-09T22:50:31.840Z,100772.09
2022-10-09T22:52:57.978Z,100764.34
2022-10-09T22:55:24.094Z,100767.09
2022-10-09T22:57:50.244Z,100769.25
2022-10-09T23:00:16.350Z,100755.72
2022-10-09T23:02:42.502Z,100765.28
2022-10-09T23:05:08.649Z,100758.31
2022-10-09T23:07:34.817Z,100766.38
2022-10-09T23:10:00.939Z,100758.47
2022-10-09T23:12:27.070Z,100764.63
2022-10-09T23:14:53.223Z,100765.53
2022-10-09T23:17:19.339Z,100766.47
2022-10-09T23:19:45.446Z,100764.78
2022-10-09T23:22:11.573Z,100764.94
2022-10-09T23:24:48.001Z,100761.69
2022-10-09T23:27:14.185Z,100758.56
2022-10-09T23:29:40.295Z,100758.88
2022-10-09T23:32:06.407Z,100757.66
2022-10-09T23:34:32.537Z,100763.19
2022-10-09T23:36:58.641Z,100757.47
2022-10-09T23:39:24.787Z,100757.03
2022-10-09T23:41:50.938Z,100751.22
2022-10-09T23:44:21.863Z,100750.16
2022-10-09T23:46:48.357Z,100755.22
2022-10-09T23:49:14.506Z,100754.47
2022-10-09T23:51:40.661Z,100750.28
2022-10-09T23:54:06.798Z,100754.13
2022-10-09T23:56:32.903Z,100759.41
2022-10-09T23:58:59.032Z,100749.53
